METAR Data
IDs: Format: Raw Decoded Include TAF

Data at: 0212 UTC 25 Feb 2021

KBUR 250153Z 18003KT 10SM CLR 18/05 A2998 RMK AO2 SLP143 T01830050 $